createdAt,value
2016-11-25T00:07:17.492Z,279.6
2016-11-25T00:18:17.239Z,280.2
2016-11-25T00:29:16.951Z,280.2
2016-11-25T00:40:17.272Z,280
2016-11-25T00:51:16.806Z,279.7
2016-11-25T01:02:16.500Z,279.6
2016-11-25T01:13:17.080Z,279.6
2016-11-25T01:24:16.710Z,279.7
2016-11-25T01:35:17.091Z,279.7
2016-11-25T01:46:16.901Z,279.7
2016-11-25T01:57:16.740Z,278.6
2016-11-25T02:08:17.090Z,279.4
2016-11-25T02:19:17.277Z,279.4
2016-11-25T02:30:17.546Z,279.4
2016-11-25T02:41:17.046Z,279.5
2016-11-25T02:52:17.072Z,279
2016-11-25T03:03:17.711Z,278.9
2016-11-25T03:14:16.969Z,279.2
2016-11-25T03:25:17.234Z,279.1
2016-11-25T03:36:17.151Z,279
2016-11-25T03:47:17.841Z,279.2
2016-11-25T03:58:16.608Z,279
2016-11-25T04:09:16.770Z,278.8
2016-11-25T04:20:16.994Z,277.9
2016-11-25T04:31:17.250Z,279.4
2016-11-25T04:42:17.725Z,279.5
2016-11-25T04:53:17.559Z,278.5
2016-11-25T05:04:16.546Z,278.5
2016-11-25T05:15:17.428Z,278.4
2016-11-25T05:26:16.923Z,278.2
2016-11-25T05:37:18.470Z,278.8
2016-11-25T05:48:17.414Z,278.7
2016-11-25T05:59:17.184Z,278.5
2016-11-25T06:10:17.732Z,278.5
2016-11-25T06:21:17.874Z,278.9
2016-11-25T06:32:17.437Z,278.7
2016-11-25T06:43:16.700Z,279
2016-11-25T06:54:17.287Z,279.4
2016-11-25T07:05:16.949Z,279.5
2016-11-25T07:16:16.778Z,279.2
2016-11-25T07:27:17.344Z,279.2
2016-11-25T07:38:17.417Z,279.9
2016-11-25T07:49:17.421Z,279.4
2016-11-25T08:00:17.487Z,279.7
2016-11-25T08:11:17.211Z,279.8
2016-11-25T08:22:17.288Z,279.9
2016-11-25T08:33:17.732Z,280.2
2016-11-25T08:44:17.861Z,280.6
2016-11-25T08:55:17.350Z,280.2
2016-11-25T09:06:17.211Z,280.6
2016-11-25T09:17:17.019Z,280.1
2016-11-25T09:28:17.533Z,280.7
2016-11-25T09:39:17.205Z,280.6
2016-11-25T09:50:17.376Z,281
2016-11-25T10:01:17.083Z,280.9
2016-11-25T10:12:16.837Z,281.5
2016-11-25T10:23:17.288Z,281.2
2016-11-25T10:34:16.683Z,281.5
2016-11-25T10:45:16.710Z,281.6
2016-11-25T10:56:16.470Z,280.8
2016-11-25T11:07:17.329Z,281
2016-11-25T11:18:16.613Z,280.8
2016-11-25T11:29:17.406Z,281.1
2016-11-25T11:40:17.623Z,281.5
2016-11-25T11:51:16.758Z,280.5
2016-11-25T12:02:16.924Z,281.6
2016-11-25T12:13:17.414Z,282.1
2016-11-25T12:24:17.884Z,280.6
2016-11-25T12:35:17.195Z,281.7
2016-11-25T12:46:16.736Z,281.7
2016-11-25T12:57:16.675Z,281
2016-11-25T13:08:17.366Z,281.5
2016-11-25T13:19:17.400Z,281.7
2016-11-25T13:30:17.031Z,281.3
2016-11-25T13:41:17.101Z,281.1
2016-11-25T13:52:17.271Z,281.1
2016-11-25T14:03:16.798Z,280.7
2016-11-25T14:14:16.945Z,281.2
2016-11-25T14:25:16.860Z,281.4
2016-11-25T14:36:16.932Z,281
2016-11-25T14:47:16.759Z,278.3
2016-11-25T14:58:16.872Z,280.8
2016-11-25T15:09:16.974Z,280.2
2016-11-25T15:20:17.474Z,280.5
2016-11-25T15:31:17.147Z,280.2
2016-11-25T15:42:17.049Z,279.8
2016-11-25T15:53:16.725Z,279.2
2016-11-25T16:04:16.814Z,280.5
2016-11-25T16:15:17.242Z,279.8
2016-11-25T16:26:17.041Z,279.7
2016-11-25T16:37:17.346Z,279.5
2016-11-25T16:48:17.995Z,279.4
2016-11-25T16:59:17.300Z,279.7
2016-11-25T17:10:17.218Z,279.9
2016-11-25T17:21:16.620Z,279.6
2016-11-25T17:32:17.441Z,278.5
2016-11-25T17:43:16.708Z,278.3
2016-11-25T17:54:17.457Z,278.9
2016-11-25T18:05:17.474Z,278.9
2016-11-25T18:16:17.182Z,278.8
2016-11-25T18:27:16.854Z,278.9
2016-11-25T18:38:17.555Z,278.4
2016-11-25T18:49:16.916Z,278.9
2016-11-25T19:00:17.714Z,278.9
2016-11-25T19:11:17.067Z,279.1
2016-11-25T19:22:16.609Z,278.8
2016-11-25T19:33:16.782Z,279
2016-11-25T19:44:16.793Z,278.5
2016-11-25T19:55:16.758Z,278.7
2016-11-25T20:06:17.030Z,278.9
2016-11-25T20:17:17.183Z,278.6
2016-11-25T20:28:16.878Z,278.8
2016-11-25T20:39:17.177Z,278.7
2016-11-25T20:50:17.920Z,278.4
2016-11-25T21:01:17.060Z,278.8
2016-11-25T21:12:16.640Z,278.4
2016-11-25T21:23:17.251Z,278.6
2016-11-25T21:34:17.045Z,279
2016-11-25T21:45:16.691Z,278.1
2016-11-25T21:56:17.578Z,278.5
2016-11-25T22:07:17.685Z,278.3
2016-11-25T22:18:17.766Z,278.1
2016-11-25T22:29:17.084Z,278.4
2016-11-25T22:40:17.168Z,278.9
2016-11-25T22:51:16.799Z,278.4
2016-11-25T23:02:17.174Z,278.3
2016-11-25T23:13:16.659Z,278.7
2016-11-25T23:24:17.545Z,278.4
2016-11-25T23:35:17.073Z,277.7
2016-11-25T23:46:16.872Z,278.1
2016-11-25T23:57:17.510Z,278.7
